Time;durP1;ratioP1;P1;durP2;ratioP2;P2;SDS_P1;SDS_P2;PMS_P1;PMS_P2;Temp;Humidity;BMP_temperature;BMP_pressure;BME280_temperature;BME280_humidity;BME280_pressure;Samples;Min_cycle;Max_cycle;Signal;HPM_P1;HPM_P2
2022/12/29 00:01:10;;;;;;;4.00;3.70;;;;;;;9.07;100.00;96156.00;5050624;28;20060;-38
2022/12/29 00:03:40;;;;;;;4.22;3.83;;;;;;;8.77;100.00;96155.22;5056788;28;20075;-38
2022/12/29 00:06:09;;;;;;;4.32;3.92;;;;;;;8.99;100.00;96143.56;5062022;28;20068;-38
2022/12/29 00:08:42;;;;;;;4.13;3.80;;;;;;;9.11;100.00;96134.53;5055113;28;20073;-39
2022/12/29 00:11:13;;;;;;;4.20;3.80;;;;;;;9.06;100.00;96146.47;5062605;28;20072;-39
2022/12/29 00:16:24;;;;;;;3.92;3.63;;;;;;;9.04;100.00;96144.78;5027730;28;20076;-41
2022/12/29 00:18:54;;;;;;;3.80;3.50;;;;;;;8.87;100.00;96147.34;5058872;28;20076;-40
2022/12/29 00:35:23;;;;;;;3.78;3.47;;;;;;;9.22;100.00;96118.59;5054827;28;20095;-44
2022/12/29 00:46:09;;;;;;;3.75;3.45;;;;;;;9.24;100.00;96128.94;5051388;28;20080;-39
2022/12/29 00:51:34;;;;;;;3.88;3.50;;;;;;;9.21;100.00;96126.59;5051787;28;20065;-41
2022/12/29 00:54:02;;;;;;;3.47;3.17;;;;;;;9.32;100.00;96136.94;5055298;28;20107;-38
2022/12/29 00:56:31;;;;;;;3.75;3.45;;;;;;;9.02;100.00;96144.13;5054241;28;20079;-38
2022/12/29 00:59:01;;;;;;;4.10;3.70;;;;;;;9.08;100.00;96137.44;5055101;28;20316;-39
2022/12/29 01:01:29;;;;;;;3.85;3.55;;;;;;;9.26;100.00;96132.28;5053534;28;20069;-38
2022/12/29 01:03:58;;;;;;;3.58;3.28;;;;;;;9.24;100.00;96135.03;5054837;28;20079;-42
2022/12/29 01:06:32;;;;;;;4.20;3.80;;;;;;;9.01;100.00;96128.47;5055423;28;20075;-39
2022/12/29 01:11:47;;;;;;;3.65;3.38;;;;;;;9.16;98.13;96140.19;5051496;28;20072;-41
2022/12/29 01:14:16;;;;;;;4.00;3.70;;;;;;;9.14;97.91;96136.88;5050029;28;20061;-40
2022/12/29 01:16:45;;;;;;;3.33;3.13;;;;;;;8.83;99.09;96133.63;5056038;28;20444;-40
2022/12/29 01:19:14;;;;;;;3.70;3.40;;;;;;;9.10;98.57;96132.06;5057529;28;20462;-37
2022/12/29 01:21:45;;;;;;;3.78;3.25;;;;;;;8.98;100.00;96140.13;5055029;28;20072;-41
2022/12/29 01:24:16;;;;;;;4.82;3.67;;;;;;;9.08;98.39;96147.13;5055288;28;20072;-39
2022/12/29 01:26:45;;;;;;;3.50;3.30;;;;;;;9.10;98.06;96138.13;5060489;28;20084;-44
2022/12/29 01:29:14;;;;;;;3.60;3.30;;;;;;;9.24;96.39;96136.84;5058362;28;20072;-38
2022/12/29 01:31:44;;;;;;;;;;;;;;;9.06;97.61;96134.16;5056511;28;20195;-39
2022/12/29 01:34:12;;;;;;;3.65;3.35;;;;;;;9.02;100.00;96140.66;5063197;28;19967;-41
2022/12/29 01:36:41;;;;;;;3.70;3.40;;;;;;;8.69;100.00;96142.78;5057811;28;20072;-43
2022/12/29 01:39:09;;;;;;;4.20;3.80;;;;;;;8.76;100.00;96140.44;5060475;28;20075;-46
2022/12/29 01:41:39;;;;;;;3.60;3.30;;;;;;;8.84;100.00;96137.09;5058388;28;20036;-40
2022/12/29 01:44:49;;;;;;;3.80;3.50;;;;;;;8.86;100.00;96138.63;5055388;28;20064;-48
2022/12/29 01:47:24;;;;;;;3.80;3.50;;;;;;;8.85;100.00;96130.88;5062135;28;20080;-43
2022/12/29 01:49:54;;;;;;;3.72;3.40;;;;;;;8.93;98.93;96139.69;5059585;28;20079;-42
2022/12/29 01:52:23;;;;;;;;;;;;;;;8.87;99.72;96129.75;5061212;28;20052;-40
2022/12/29 01:54:53;;;;;;;3.60;3.30;;;;;;;8.68;100.00;96128.00;5073523;28;19972;-40
2022/12/29 01:57:27;;;;;;;3.50;3.20;;;;;;;8.65;100.00;96127.47;5056243;28;20053;-50
2022/12/29 01:59:57;;;;;;;3.60;3.30;;;;;;;8.86;100.00;96127.28;5051940;28;20060;-43
2022/12/29 02:02:26;;;;;;;3.95;3.40;;;;;;;8.85;100.00;96126.44;5057408;28;20075;-38
2022/12/29 02:05:00;;;;;;;3.65;3.35;;;;;;;8.78;99.94;96118.31;5059745;28;20344;-39
2022/12/29 02:07:32;;;;;;;3.67;3.38;;;;;;;8.93;99.35;96118.66;5059795;28;20053;-39
2022/12/29 02:10:02;;;;;;;3.50;3.20;;;;;;;8.87;100.00;96115.78;5059144;28;20045;-41
2022/12/29 02:12:32;;;;;;;3.42;3.15;;;;;;;8.83;99.53;96114.41;5057498;28;20084;-46
2022/12/29 02:15:03;;;;;;;3.50;3.23;;;;;;;9.09;95.33;96119.88;5062551;28;20083;-39
2022/12/29 02:17:45;;;;;;;3.50;3.20;;;;;;;8.72;99.76;96113.59;5060774;28;20071;-41
2022/12/29 02:20:39;;;;;;;3.63;3.10;;;;;;;8.65;100.00;96107.25;5057817;28;20083;-43
2022/12/29 02:23:40;;;;;;;3.60;3.30;;;;;;;8.84;100.00;96109.00;5056049;28;20065;-38
2022/12/29 02:26:20;;;;;;;3.55;3.35;;;;;;;8.65;100.00;96109.06;5053576;28;20444;-39
2022/12/29 02:29:13;;;;;;;3.35;3.15;;;;;;;8.92;100.00;96100.41;5055319;28;20069;-41
2022/12/29 02:31:46;;;;;;;3.65;3.45;;;;;;;8.99;100.00;96107.59;5053155;28;20088;-45
2022/12/29 02:34:23;;;;;;;3.30;3.10;;;;;;;8.79;100.00;96109.44;5052247;28;20064;-42
2022/12/29 02:37:00;;;;;;;3.28;3.05;;;;;;;9.12;99.71;96101.16;5057901;28;20080;-42
2022/12/29 02:39:34;;;;;;;3.33;3.13;;;;;;;8.87;100.00;96102.63;5058052;28;20583;-40
2022/12/29 02:42:10;;;;;;;3.60;3.40;;;;;;;9.04;100.00;96101.88;5062045;28;20441;-39
2022/12/29 02:44:45;;;;;;;3.42;3.13;;;;;;;8.80;100.00;96100.56;5056313;28;20072;-44
2022/12/29 02:47:19;;;;;;;3.30;3.10;;;;;;;8.64;100.00;96102.16;5059455;28;20080;-38
2022/12/29 02:49:53;;;;;;;3.28;3.08;;;;;;;8.79;98.45;96098.09;5059777;28;20064;-39
2022/12/29 02:52:27;;;;;;;3.28;3.08;;;;;;;9.08;97.20;96092.72;5057475;28;20512;-39
2022/12/29 02:54:55;;;;;;;5.05;3.22;;;;;;;9.25;93.76;96093.78;5056581;28;20504;-43
2022/12/29 02:57:31;;;;;;;3.33;3.13;;;;;;;8.82;97.18;96091.72;5047815;28;20108;-41
2022/12/29 03:00:04;;;;;;;3.65;3.35;;;;;;;9.12;94.80;96086.22;5056707;28;20088;-40
2022/12/29 03:02:45;;;;;;;3.30;3.10;;;;;;;9.23;91.76;96082.59;5057213;28;20092;-40
2022/12/29 03:05:20;;;;;;;3.17;2.97;;;;;;;9.22;95.84;96086.16;5056681;28;20060;-37
2022/12/29 03:07:53;;;;;;;3.33;3.10;;;;;;;9.32;93.90;96086.13;5055579;28;20067;-39
2022/12/29 03:10:36;;;;;;;3.20;3.00;;;;;;;9.40;88.96;96084.44;5051694;28;20087;-41
2022/12/29 03:16:03;;;;;;;3.35;3.15;;;;;;;9.62;83.88;96074.47;5058237;28;20095;-49
2022/12/29 03:18:48;;;;;;;3.20;3.00;;;;;;;9.64;84.17;96075.97;5056226;28;20139;-40
2022/12/29 03:21:20;;;;;;;3.00;2.80;;;;;;;9.44;83.02;96067.38;5056251;28;20543;-46
2022/12/29 03:23:49;;;;;;;3.15;2.90;;;;;;;9.58;81.92;96066.03;5056758;28;20081;-41
2022/12/29 03:26:19;;;;;;;3.42;2.90;;;;;;;9.97;77.01;96066.59;5056313;28;20077;-38
2022/12/29 03:28:52;;;;;;;3.10;2.90;;;;;;;9.66;78.71;96062.66;5058819;28;20079;-38
2022/12/29 03:31:21;;;;;;;3.08;2.80;;;;;;;9.86;77.31;96055.47;5054316;28;20067;-44
2022/12/29 03:33:51;;;;;;;2.95;2.75;;;;;;;10.01;74.72;96061.84;5057365;28;20079;-38
2022/12/29 03:36:24;;;;;;;3.00;2.80;;;;;;;9.96;75.42;96059.66;5043331;28;20061;-40
2022/12/29 03:38:58;;;;;;;3.00;2.80;;;;;;;9.98;75.91;96060.38;5053012;28;20076;-44
2022/12/29 03:41:29;;;;;;;3.20;2.92;;;;;;;9.91;74.27;96066.34;5051925;28;20076;-40
2022/12/29 03:43:58;;;;;;;3.97;3.17;;;;;;;9.97;75.57;96060.50;5056826;28;20060;-41
2022/12/29 03:46:26;;;;;;;3.15;2.90;;;;;;;10.09;74.67;96056.66;5057436;28;20127;-43
2022/12/29 03:48:55;;;;;;;3.10;2.90;;;;;;;10.03;75.98;96059.91;5056278;28;20079;-44
2022/12/29 03:51:24;;;;;;;3.40;3.10;;;;;;;9.88;76.64;96056.97;5057931;28;20072;-42
2022/12/29 03:53:52;;;;;;;4.60;3.13;;;;;;;9.77;76.74;96054.53;5054777;28;20370;-39
2022/12/29 03:56:20;;;;;;;3.13;2.92;;;;;;;10.02;74.89;96058.25;5053650;28;20075;-40
2022/12/29 03:58:49;;;;;;;3.13;2.92;;;;;;;9.98;74.18;96068.25;5061050;28;20087;-38
2022/12/29 04:01:17;;;;;;;3.08;2.88;;;;;;;10.10;72.14;96062.75;5055072;28;20444;-42
2022/12/29 04:03:46;;;;;;;2.90;2.70;;;;;;;10.02;72.54;96055.63;5050174;28;20083;-41
2022/12/29 04:06:15;;;;;;;2.90;2.70;;;;;;;10.50;68.42;96057.03;5053747;28;20075;-38
2022/12/29 04:08:44;;;;;;;3.13;2.90;;;;;;;10.32;68.82;96053.56;5050152;28;20531;-41
2022/12/29 04:11:12;;;;;;;3.08;2.88;;;;;;;10.20;68.79;96055.59;5057812;28;20507;-42
2022/12/29 04:13:41;;;;;;;2.90;2.70;;;;;;;10.41;67.53;96063.22;5058848;28;20092;-40
2022/12/29 04:16:09;;;;;;;3.15;2.95;;;;;;;10.60;65.77;96063.03;5056417;28;20064;-40
2022/12/29 04:18:38;;;;;;;2.80;2.60;;;;;;;10.54;66.85;96052.28;5058297;28;20072;-39
2022/12/29 04:21:06;;;;;;;2.90;2.70;;;;;;;10.74;64.53;96055.53;5054965;28;20076;-42
2022/12/29 04:23:37;;;;;;;2.95;2.60;;;;;;;10.33;67.10;96065.78;5054806;28;20072;-38
2022/12/29 04:26:08;;;;;;;2.80;2.60;;;;;;;10.27;66.16;96061.94;5051496;28;20535;-39
2022/12/29 04:28:37;;;;;;;3.10;2.90;;;;;;;10.22;66.13;96057.13;5050360;28;20080;-46
2022/12/29 04:31:06;;;;;;;3.17;2.97;;;;;;;10.74;64.15;96047.63;5056710;28;20072;-39
2022/12/29 04:33:34;;;;;;;2.80;2.60;;;;;;;10.72;64.73;96037.22;5056635;28;20064;-41
2022/12/29 04:36:03;;;;;;;3.00;2.80;;;;;;;10.53;64.58;96047.97;5054920;28;20520;-40
2022/12/29 04:38:31;;;;;;;2.90;2.70;;;;;;;10.92;63.43;96033.38;5060538;28;20080;-41
2022/12/29 04:41:01;;;;;;;3.17;2.80;;;;;;;10.78;63.55;96033.13;5064688;28;20077;-39
2022/12/29 04:43:30;;;;;;;3.00;2.80;;;;;;;10.63;63.92;96031.09;5055423;28;20782;-40
2022/12/29 04:45:58;;;;;;;3.28;2.92;;;;;;;10.79;63.49;96026.88;5048937;28;20079;-39
2022/12/29 04:48:27;;;;;;;3.10;2.80;;;;;;;11.04;61.49;96026.00;5049534;28;20077;-39
2022/12/29 04:50:55;;;;;;;3.15;2.95;;;;;;;10.73;63.34;96028.31;5056137;28;20084;-40
2022/12/29 04:53:23;;;;;;;3.10;2.90;;;;;;;10.53;63.63;96027.72;5057598;28;20131;-41
2022/12/29 04:55:53;;;;;;;2.80;2.60;;;;;;;10.94;62.46;96022.66;5051253;28;20068;-48
2022/12/29 04:58:23;;;;;;;2.90;2.70;;;;;;;10.72;63.58;96028.47;5052410;28;20068;-39
2022/12/29 05:00:51;;;;;;;2.90;2.70;;;;;;;10.92;62.44;96032.56;5053051;28;20084;-43
2022/12/29 05:03:21;;;;;;;2.88;2.67;;;;;;;10.96;61.66;96033.06;5055003;28;20084;-40
2022/12/29 05:05:54;;;;;;;3.05;2.75;;;;;;;11.13;60.68;96032.16;5054025;28;20051;-38
2022/12/29 05:08:22;;;;;;;3.42;2.80;;;;;;;11.11;60.24;96036.75;5054566;28;20079;-37
2022/12/29 05:10:55;;;;;;;3.00;2.70;;;;;;;11.16;59.77;96045.84;5058147;28;20084;-42
2022/12/29 05:13:25;;;;;;;2.80;2.60;;;;;;;10.95;61.52;96048.06;5059660;28;20080;-40
2022/12/29 05:15:54;;;;;;;2.90;2.70;;;;;;;11.09;60.72;96039.56;5057641;28;20072;-38
2022/12/29 05:18:22;;;;;;;2.95;2.75;;;;;;;11.27;59.16;96033.38;5058201;28;20068;-38
2022/12/29 05:20:51;;;;;;;2.90;2.70;;;;;;;11.48;58.97;96046.97;5057367;28;20370;-40
2022/12/29 05:23:19;;;;;;;2.97;2.78;;;;;;;11.52;58.75;96044.81;5050253;28;20083;-44
2022/12/29 05:25:47;;;;;;;2.80;2.60;;;;;;;11.05;60.13;96048.78;5057147;28;20080;-40
2022/12/29 05:28:16;;;;;;;3.08;2.88;;;;;;;11.39;59.71;96043.47;5053474;28;20797;-43
2022/12/29 05:30:49;;;;;;;2.83;2.63;;;;;;;11.21;59.95;96047.19;5056185;28;20607;-43
2022/12/29 05:33:17;;;;;;;2.90;2.70;;;;;;;11.55;58.12;96042.69;5054769;28;20481;-37
2022/12/29 05:35:46;;;;;;;2.97;2.78;;;;;;;11.29;58.76;96044.59;5061220;28;20095;-42
2022/12/29 05:38:14;;;;;;;3.33;3.00;;;;;;;11.59;58.11;96041.38;5056238;28;20118;-37
2022/12/29 05:40:43;;;;;;;2.92;2.70;;;;;;;11.57;58.28;96035.44;5062761;28;20092;-44
2022/12/29 05:43:12;;;;;;;3.42;2.83;;;;;;;11.28;57.98;96035.81;5056809;28;20559;-40
2022/12/29 05:45:40;;;;;;;2.88;2.67;;;;;;;11.30;58.52;96043.59;5063259;28;20087;-40
2022/12/29 05:48:09;;;;;;;3.08;2.80;;;;;;;11.36;58.61;96027.13;5055231;28;20091;-37
2022/12/29 05:50:38;;;;;;;2.90;2.70;;;;;;;11.38;59.18;96028.59;5051774;28;20096;-44
2022/12/29 05:53:06;;;;;;;3.08;2.75;;;;;;;11.69;58.54;96027.22;5063988;28;20087;-41
2022/12/29 05:55:35;;;;;;;3.08;2.80;;;;;;;11.53;59.47;96033.28;5057187;28;20076;-38
2022/12/29 05:58:03;;;;;;;3.30;3.05;;;;;;;11.27;61.10;96031.53;5053589;28;20147;-39
2022/12/29 06:00:31;;;;;;;3.65;2.78;;;;;;;11.56;59.12;96028.50;5056909;28;20096;-39
2022/12/29 06:03:00;;;;;;;3.03;2.70;;;;;;;11.69;58.31;96025.38;5056480;28;20092;-38
2022/12/29 06:05:30;;;;;;;2.75;2.55;;;;;;;11.73;57.18;96029.34;5054576;28;20087;-41
2022/12/29 06:07:58;;;;;;;2.80;2.60;;;;;;;11.79;57.61;96022.59;5066589;28;20076;-39
2022/12/29 06:10:27;;;;;;;2.90;2.70;;;;;;;11.42;58.81;96034.38;5060976;28;20088;-41
2022/12/29 06:12:55;;;;;;;3.55;2.78;;;;;;;11.37;60.19;96036.69;5050084;28;20072;-42
2022/12/29 06:15:23;;;;;;;3.00;2.70;;;;;;;11.61;59.34;96033.31;5060516;28;20069;-44
2022/12/29 06:17:52;;;;;;;2.90;2.60;;;;;;;11.50;60.18;96038.91;5062068;28;20083;-41
2022/12/29 06:20:20;;;;;;;2.80;2.60;;;;;;;11.62;58.80;96033.13;5057995;28;20084;-43
2022/12/29 06:22:49;;;;;;;2.88;2.67;;;;;;;11.60;58.29;96029.84;5057955;28;20198;-41
2022/12/29 06:25:18;;;;;;;2.90;2.60;;;;;;;11.31;60.24;96048.72;5049864;28;20103;-37
2022/12/29 06:27:46;;;;;;;2.90;2.70;;;;;;;11.50;59.65;96023.88;5050123;28;20087;-45
2022/12/29 06:30:15;;;;;;;2.80;2.60;;;;;;;11.71;58.05;96026.06;5050683;28;20093;-42
2022/12/29 06:32:45;;;;;;;3.47;2.90;;;;;;;11.61;56.52;96023.56;5052955;28;20080;-41
2022/12/29 06:35:13;;;;;;;3.85;2.80;;;;;;;11.93;56.12;96027.28;5050480;28;20539;-37
2022/12/29 06:37:41;;;;;;;4.38;2.78;;;;;;;11.81;55.92;96031.22;5055226;28;20094;-38
2022/12/29 06:40:12;;;;;;;3.05;2.80;;;;;;;11.88;56.09;96030.41;5055187;28;20119;-36
2022/12/29 06:42:40;;;;;;;;;;;;;;;11.93;55.70;96037.03;5056613;28;20084;-38
2022/12/29 06:45:09;;;;;;;2.70;2.50;;;;;;;11.76;56.85;96042.25;5051254;28;19966;-40
2022/12/29 06:47:37;;;;;;;3.95;2.75;;;;;;;11.94;55.76;96042.16;5061256;28;20547;-40
2022/12/29 06:50:06;;;;;;;2.90;2.70;;;;;;;11.96;55.74;96041.97;5054597;28;20084;-38
2022/12/29 06:52:35;;;;;;;3.10;2.80;;;;;;;11.70;56.70;96052.63;5060606;28;20056;-37
2022/12/29 06:55:04;;;;;;;3.08;2.78;;;;;;;11.89;56.16;96052.38;5054301;28;20123;-41
2022/12/29 06:57:34;;;;;;;2.90;2.70;;;;;;;11.40;57.06;96042.50;5055294;28;20088;-38
2022/12/29 07:00:04;;;;;;;3.03;2.78;;;;;;;11.77;56.29;96041.28;5050039;28;20072;-39
2022/12/29 07:02:32;;;;;;;3.45;2.88;;;;;;;11.93;55.34;96040.47;5054758;28;20095;-40
2022/12/29 07:05:01;;;;;;;2.80;2.60;;;;;;;12.14;53.66;96047.13;5058709;28;20084;-40
2022/12/29 07:07:29;;;;;;;4.90;2.70;;;;;;;12.24;53.53;96048.59;5056010;28;20106;-38
2022/12/29 07:09:58;;;;;;;3.97;2.80;;;;;;;12.41;52.72;96049.44;5053155;28;20072;-42
2022/12/29 07:12:26;;;;;;;2.80;2.60;;;;;;;12.38;53.45;96056.88;5056319;28;20081;-45
2022/12/29 07:14:55;;;;;;;9.45;8.18;;;;;;;12.13;54.10;96071.91;5060538;28;20088;-41
2022/12/29 07:17:24;;;;;;;16.40;12.88;;;;;;;12.40;53.18;96073.41;5049455;28;20084;-37
2022/12/29 07:19:52;;;;;;;6.35;5.60;;;;;;;12.29;53.61;96080.69;5062039;28;20080;-41
2022/12/29 07:22:21;;;;;;;6.57;5.78;;;;;;;12.34;53.29;96072.25;5048751;28;20081;-39
2022/12/29 07:24:49;;;;;;;4.22;3.83;;;;;;;12.39;53.26;96083.16;5057575;28;20080;-38
2022/12/29 07:27:17;;;;;;;3.03;2.83;;;;;;;12.55;52.17;96083.13;5052119;28;20072;-39
2022/12/29 07:29:46;;;;;;;3.17;2.80;;;;;;;12.26;52.74;96086.28;5061303;28;20099;-41
2022/12/29 07:32:15;;;;;;;3.40;3.10;;;;;;;12.57;51.92;96093.56;5054563;28;20087;-37
2022/12/29 07:34:45;;;;;;;4.75;2.80;;;;;;;12.66;51.09;96094.38;5062022;28;20558;-38
2022/12/29 07:37:13;;;;;;;3.60;2.70;;;;;;;12.72;51.04;96086.59;5056741;28;20462;-44
2022/12/29 07:39:42;;;;;;;3.50;3.20;;;;;;;12.49;51.58;96096.19;5050518;28;20087;-38
2022/12/29 07:42:11;;;;;;;3.17;2.97;;;;;;;12.79;50.55;96098.16;5049025;28;20084;-38
2022/12/29 07:44:39;;;;;;;3.40;3.10;;;;;;;12.93;50.10;96093.19;5051375;28;20073;-41
2022/12/29 07:47:08;;;;;;;3.17;2.80;;;;;;;13.00;50.01;96088.88;5056145;28;20530;-41
2022/12/29 07:49:37;;;;;;;3.30;2.90;;;;;;;12.88;49.77;96080.47;5063194;28;20481;-44
2022/12/29 07:52:05;;;;;;;5.63;2.90;;;;;;;12.97;49.61;96082.13;5052801;28;20584;-41
2022/12/29 07:54:34;;;;;;;3.80;2.92;;;;;;;12.78;49.77;96085.13;5054623;28;20084;-45
2022/12/29 07:57:02;;;;;;;3.42;2.97;;;;;;;13.09;49.21;96077.28;5055485;28;20636;-42
2022/12/29 07:59:30;;;;;;;3.40;3.10;;;;;;;12.91;49.33;96082.78;5048567;28;20080;-40
2022/12/29 08:01:59;;;;;;;3.08;2.85;;;;;;;12.78;49.57;96075.34;5062042;28;20095;-38
2022/12/29 08:04:27;;;;;;;3.10;2.80;;;;;;;12.79;49.48;96079.63;5064894;28;20087;-39
2022/12/29 08:06:57;;;;;;;3.00;2.80;;;;;;;12.75;49.62;96088.91;5066547;28;20087;-40
2022/12/29 08:09:25;;;;;;;3.15;2.90;;;;;;;12.66;50.17;96086.44;5053582;28;20081;-40
2022/12/29 08:11:54;;;;;;;3.97;3.08;;;;;;;12.64;49.31;96086.63;5050017;28;20072;-38
2022/12/29 08:14:22;;;;;;;4.63;2.85;;;;;;;12.97;48.77;96090.06;5050719;28;20076;-40
2022/12/29 08:16:51;;;;;;;4.78;3.35;;;;;;;13.10;48.25;96080.75;5052459;28;20480;-46
2022/12/29 08:19:19;;;;;;;3.60;3.20;;;;;;;13.15;48.58;96089.84;5048241;28;20080;-40
2022/12/29 08:21:47;;;;;;;3.00;2.70;;;;;;;13.01;49.44;96088.72;5050086;28;20532;-42
2022/12/29 08:24:17;;;;;;;3.05;2.78;;;;;;;13.16;49.57;96082.72;5064561;28;20068;-39
2022/12/29 08:26:45;;;;;;;3.23;2.80;;;;;;;13.30;49.76;96085.50;5057830;28;20099;-44
2022/12/29 08:29:14;;;;;;;3.75;2.80;;;;;;;13.33;50.05;96078.25;5058170;28;20464;-40
2022/12/29 08:31:42;;;;;;;3.30;3.00;;;;;;;13.11;50.35;96074.44;5057940;28;20095;-38
2022/12/29 08:34:11;;;;;;;6.25;3.00;;;;;;;13.46;49.10;96075.88;5058529;28;20072;-38
2022/12/29 08:36:39;;;;;;;3.10;2.90;;;;;;;13.67;47.95;96075.28;5054988;28;20091;-36
2022/12/29 08:39:07;;;;;;;4.28;3.03;;;;;;;13.50;48.24;96069.22;5059706;28;20068;-36
2022/12/29 08:41:37;;;;;;;3.70;2.90;;;;;;;13.69;47.90;96070.63;5063899;28;20087;-39
2022/12/29 08:44:06;;;;;;;4.15;3.00;;;;;;;13.91;47.32;96069.84;5055583;28;20080;-38
2022/12/29 08:46:34;;;;;;;4.22;3.10;;;;;;;13.95;47.61;96075.63;5056212;28;20083;-36
2022/12/29 08:49:02;;;;;;;3.50;3.17;;;;;;;13.74;48.38;96073.59;5063126;28;20071;-41
2022/12/29 08:51:31;;;;;;;3.38;3.03;;;;;;;13.87;47.81;96071.19;5060860;28;20087;-41
2022/12/29 08:53:59;;;;;;;4.10;3.00;;;;;;;14.07;47.14;96079.50;5054707;28;20169;-37
2022/12/29 08:56:28;;;;;;;3.42;2.90;;;;;;;14.32;47.00;96082.00;5058123;28;20086;-39
2022/12/29 08:58:58;;;;;;;4.70;3.08;;;;;;;14.32;47.31;96089.97;5064507;28;20080;-38
2022/12/29 09:01:26;;;;;;;4.68;3.80;;;;;;;14.44;46.69;96092.00;5059760;28;20088;-38
2022/12/29 09:03:55;;;;;;;3.42;3.10;;;;;;;14.54;45.75;96085.69;5056193;28;20080;-35
2022/12/29 09:06:44;;;;;;;3.10;2.80;;;;;;;14.45;46.14;96087.53;5052751;28;20088;-44
2022/12/29 09:09:12;;;;;;;3.42;2.80;;;;;;;14.63;45.83;96084.63;5061938;28;20079;-40
2022/12/29 09:11:41;;;;;;;3.95;2.88;;;;;;;14.94;45.33;96085.31;5058557;28;20632;-38
2022/12/29 09:14:11;;;;;;;5.22;3.20;;;;;;;14.92;45.06;96087.31;5058718;28;20084;-39
2022/12/29 09:19:24;;;;;;;3.75;3.40;;;;;;;14.69;45.22;96098.00;5040266;28;20076;-41
2022/12/29 09:21:54;;;;;;;4.57;2.70;;;;;;;15.14;44.73;96087.41;5051979;28;20069;-39
2022/12/29 09:24:23;;;;;;;2.80;2.50;;;;;;;14.67;43.51;96092.03;5062609;28;20076;-43
2022/12/29 09:26:51;;;;;;;2.65;2.45;;;;;;;14.82;43.48;96088.56;5060351;28;20075;-38
2022/12/29 09:29:21;;;;;;;2.80;2.50;;;;;;;14.99;42.37;96079.44;5058549;28;20076;-37
2022/12/29 09:31:49;;;;;;;2.70;2.45;;;;;;;15.14;42.69;96075.00;5050950;28;20453;-37
2022/12/29 09:34:17;;;;;;;2.88;2.33;;;;;;;15.66;43.37;96073.25;5052788;28;20089;-37
2022/12/29 09:36:46;;;;;;;3.03;2.40;;;;;;;15.63;42.66;96068.28;5053656;28;20084;-41
2022/12/29 09:39:14;;;;;;;2.55;2.35;;;;;;;15.93;41.93;96058.41;5051481;28;20088;-37
2022/12/29 09:41:47;;;;;;;2.53;2.13;;;;;;;15.99;42.33;96054.19;5050619;28;20077;-37
2022/12/29 09:44:23;;;;;;;45.90;25.60;;;;;;;16.24;40.52;96054.66;5050532;28;20084;-39
2022/12/29 09:46:54;;;;;;;3.67;2.50;;;;;;;16.30;40.36;96056.56;5058671;28;20077;-40
2022/12/29 09:49:27;;;;;;;4.45;2.10;;;;;;;16.68;40.19;96053.59;5051706;28;20547;-40
2022/12/29 09:51:57;;;;;;;3.85;2.00;;;;;;;16.87;40.34;96057.50;5060901;28;20088;-46
2022/12/29 09:54:40;;;;;;;2.22;2.00;;;;;;;17.52;40.49;96062.41;5061293;28;20084;-43
2022/12/29 09:57:16;;;;;;;2.65;1.98;;;;;;;16.88;40.12;96067.13;5058845;28;20477;-41
2022/12/29 09:59:47;;;;;;;2.17;1.80;;;;;;;16.54;39.76;96071.31;5057536;28;20551;-39
2022/12/29 10:02:32;;;;;;;3.03;2.30;;;;;;;16.37;39.05;96068.91;5054244;28;20088;-43
2022/12/29 10:05:01;;;;;;;2.83;2.05;;;;;;;16.52;38.71;96078.69;5055404;28;20588;-41
2022/12/29 10:07:37;;;;;;;3.30;1.90;;;;;;;16.45;38.67;96075.97;5058470;28;20080;-38
2022/12/29 10:10:21;;;;;;;2.30;2.03;;;;;;;16.70;39.64;96078.22;5050309;28;20148;-38
2022/12/29 10:13:00;;;;;;;3.03;1.95;;;;;;;16.94;39.01;96080.47;5050361;28;20076;-45
2022/12/29 10:15:42;;;;;;;3.85;2.00;;;;;;;16.97;39.27;96073.94;5057518;28;20479;-40
2022/12/29 10:18:21;;;;;;;3.25;1.60;;;;;;;16.75;38.15;96081.13;5049899;28;20085;-38
2022/12/29 10:20:54;;;;;;;2.72;2.03;;;;;;;17.07;39.14;96075.25;5050083;28;20080;-38
2022/12/29 10:23:28;;;;;;;3.65;1.95;;;;;;;17.18;38.62;96076.56;5050329;28;20086;-44
2022/12/29 10:25:58;;;;;;;3.13;2.00;;;;;;;16.82;38.21;96077.50;5050312;28;20080;-38
2022/12/29 10:28:35;;;;;;;2.65;2.08;;;;;;;16.81;36.83;96070.53;5049724;28;20084;-39
2022/12/29 10:31:09;;;;;;;2.75;1.75;;;;;;;16.60;37.56;96079.34;5060043;28;20088;-40
2022/12/29 10:33:40;;;;;;;2.88;2.10;;;;;;;16.62;37.49;96068.53;5050017;28;20521;-42
2022/12/29 10:36:20;;;;;;;2.95;2.00;;;;;;;16.47;37.08;96076.56;5058108;28;20072;-38
2022/12/29 10:38:58;;;;;;;2.08;1.83;;;;;;;16.78;37.22;96072.78;5051328;28;20084;-38
2022/12/29 10:41:29;;;;;;;2.15;1.75;;;;;;;17.16;36.80;96061.78;5054147;28;20087;-39
2022/12/29 10:43:58;;;;;;;3.65;1.98;;;;;;;16.51;37.32;96058.38;5055409;28;20092;-43
2022/12/29 10:46:30;;;;;;;2.40;2.10;;;;;;;16.37;37.24;96054.78;5058289;28;20094;-39
2022/12/29 10:48:58;;;;;;;2.65;2.20;;;;;;;16.64;36.79;96057.69;5057595;28;20101;-37
2022/12/29 10:51:30;;;;;;;2.42;1.95;;;;;;;16.55;36.89;96038.34;5054572;28;20493;-39
2022/12/29 10:54:01;;;;;;;2.30;2.10;;;;;;;17.11;36.08;96029.56;5062966;28;20091;-38
2022/12/29 10:56:33;;;;;;;3.60;3.10;;;;;;;17.76;38.60;96026.44;5062597;28;20080;-37
2022/12/29 10:59:07;;;;;;;2.90;2.60;;;;;;;17.92;39.78;96032.41;5060515;28;20087;-40
2022/12/29 11:01:41;;;;;;;5.40;3.00;;;;;;;17.92;40.12;96029.75;5049181;28;20552;-38
2022/12/29 11:04:26;;;;;;;5.55;4.00;;;;;;;17.68;40.24;96029.22;5060671;28;20084;-39
2022/12/29 11:06:56;;;;;;;3.45;2.60;;;;;;;17.53;40.59;96036.56;5059536;28;20465;-39
2022/12/29 11:09:27;;;;;;;3.38;2.67;;;;;;;18.09;40.34;96036.34;5056105;28;20060;-42
2022/12/29 11:12:24;;;;;;;4.65;2.60;;;;;;;17.99;40.20;96030.56;5051697;28;20120;-39
2022/12/29 11:15:04;;;;;;;3.67;2.40;;;;;;;18.13;39.84;96034.09;5051868;28;20076;-37
2022/12/29 11:17:44;;;;;;;4.07;2.80;;;;;;;18.35;39.51;96014.22;5057396;28;20457;-39
2022/12/29 11:20:28;;;;;;;2.28;2.08;;;;;;;18.25;39.70;96013.81;5049427;28;20076;-44
2022/12/29 11:22:56;;;;;;;3.85;2.30;;;;;;;18.39;39.84;96018.13;5053904;28;20088;-37
2022/12/29 11:25:25;;;;;;;2.92;2.40;;;;;;;18.26;39.84;96020.78;5048728;28;20087;-37
2022/12/29 11:27:58;;;;;;;4.55;2.63;;;;;;;18.08;40.31;96020.56;5056661;28;20095;-37
2022/12/29 11:30:28;;;;;;;3.00;2.25;;;;;;;18.27;40.13;96025.09;5052169;28;20087;-42
2022/12/29 11:32:58;;;;;;;4.38;2.40;;;;;;;17.56;41.88;96026.31;5063594;28;20095;-38
2022/12/29 11:35:36;;;;;;;3.35;1.80;;;;;;;17.42;38.45;96021.94;5055289;28;20099;-40
2022/12/29 11:38:04;;;;;;;2.10;1.83;;;;;;;16.97;36.96;96020.69;5060489;28;20087;-40
2022/12/29 11:40:34;;;;;;;2.13;1.85;;;;;;;16.99;36.77;96016.78;5059028;28;20080;-40
2022/12/29 11:43:03;;;;;;;2.80;1.98;;;;;;;17.02;36.72;96011.06;5056594;28;20076;-43
2022/12/29 11:45:34;;;;;;;2.30;1.98;;;;;;;17.14;36.32;96010.53;5056576;28;20091;-38
2022/12/29 11:48:08;;;;;;;2.17;1.98;;;;;;;17.05;36.90;96007.19;5068006;28;20089;-44
2022/12/29 11:50:38;;;;;;;3.50;2.08;;;;;;;16.84;37.80;96000.91;5054525;28;20099;-39
2022/12/29 11:53:11;;;;;;;5.03;2.00;;;;;;;16.82;37.53;96010.13;5057110;28;20148;-43
2022/12/29 11:55:39;;;;;;;3.15;2.00;;;;;;;17.44;37.96;96000.41;5059612;28;20077;-41
2022/12/29 11:58:07;;;;;;;2.83;2.03;;;;;;;17.18;37.63;96004.59;5052048;28;20088;-42
2022/12/29 12:00:40;;;;;;;2.25;1.90;;;;;;;16.98;37.36;96001.81;5052992;28;20083;-39
2022/12/29 12:03:14;;;;;;;2.83;2.00;;;;;;;17.29;37.18;96014.69;5061371;28;20087;-39
2022/12/29 12:05:50;;;;;;;2.35;2.15;;;;;;;17.78;37.82;95997.69;5060477;28;20072;-39
2022/12/29 12:08:21;;;;;;;2.78;2.00;;;;;;;17.65;37.40;96000.31;5052852;28;20087;-37
2022/12/29 12:10:53;;;;;;;2.10;1.90;;;;;;;18.11;37.02;95988.94;5057815;28;20087;-37
2022/12/29 12:13:26;;;;;;;3.30;2.03;;;;;;;17.85;36.63;95992.38;5070287;28;20477;-41
2022/12/29 12:15:58;;;;;;;2.10;1.90;;;;;;;17.70;36.75;95975.69;5058265;28;20084;-41
2022/12/29 12:18:35;;;;;;;3.20;2.00;;;;;;;17.86;37.07;95985.19;5065433;28;20084;-40
2022/12/29 12:21:09;;;;;;;2.20;1.90;;;;;;;18.02;36.80;95982.16;5052098;28;20084;-38
2022/12/29 12:23:44;;;;;;;2.33;1.80;;;;;;;18.08;36.82;95975.19;5053319;28;20111;-40
2022/12/29 12:26:14;;;;;;;3.13;2.00;;;;;;;18.35;36.18;95963.50;5055957;28;20056;-42
2022/12/29 12:28:49;;;;;;;2.78;2.00;;;;;;;18.17;37.44;95963.28;5052086;28;20563;-40